sensor_id;sensor_type;location;lat;lon;timestamp;temperature;humidity
43087;DHT22;28708;52.224;6.924;2022-08-01T00:00:13;19.10;99.90
43087;DHT22;28708;52.224;6.924;2022-08-01T00:02:39;19.00;99.90
43087;DHT22;28708;52.224;6.924;2022-08-01T00:05:07;19.10;99.90
43087;DHT22;28708;52.224;6.924;2022-08-01T00:07:34;19.00;99.90
43087;DHT22;28708;52.224;6.924;2022-08-01T00:10:00;19.10;99.90
43087;DHT22;28708;52.224;6.924;2022-08-01T00:12:26;19.00;99.90
43087;DHT22;28708;52.224;6.924;2022-08-01T00:14:51;19.10;99.90
43087;DHT22;28708;52.224;6.924;2022-08-01T00:17:17;19.00;99.90
43087;DHT22;28708;52.224;6.924;2022-08-01T00:19:43;19.00;99.90
43087;DHT22;28708;52.224;6.924;2022-08-01T00:22:09;19.00;99.90
43087;DHT22;28708;52.224;6.924;2022-08-01T00:24:35;19.00;99.90
43087;DHT22;28708;52.224;6.924;2022-08-01T00:27:01;19.00;99.90
43087;DHT22;28708;52.224;6.924;2022-08-01T00:29:26;19.00;99.90
43087;DHT22;28708;52.224;6.924;2022-08-01T00:31:52;19.00;99.90
43087;DHT22;28708;52.224;6.924;2022-08-01T00:34:18;19.10;99.90
43087;DHT22;28708;52.224;6.924;2022-08-01T00:36:44;19.00;99.90
43087;DHT22;28708;52.224;6.924;2022-08-01T00:39:09;19.00;99.90
43087;DHT22;28708;52.224;6.924;2022-08-01T00:41:35;19.00;99.90
43087;DHT22;28708;52.224;6.924;2022-08-01T00:44:05;19.10;99.90
43087;DHT22;28708;52.224;6.924;2022-08-01T00:46:32;19.00;99.90
43087;DHT22;28708;52.224;6.924;2022-08-01T00:48:59;19.10;99.90
43087;DHT22;28708;52.224;6.924;2022-08-01T00:51:26;19.10;99.90
43087;DHT22;28708;52.224;6.924;2022-08-01T00:53:52;19.00;99.90
43087;DHT22;28708;52.224;6.924;2022-08-01T00:56:20;19.00;99.90
43087;DHT22;28708;52.224;6.924;2022-08-01T00:58:47;19.00;99.90
43087;DHT22;28708;52.224;6.924;2022-08-01T01:01:13;18.90;99.90
43087;DHT22;28708;52.224;6.924;2022-08-01T01:03:39;18.80;99.90
43087;DHT22;28708;52.224;6.924;2022-08-01T01:08:43;18.80;99.90
43087;DHT22;28708;52.224;6.924;2022-08-01T01:11:25;18.80;99.90
43087;DHT22;28708;52.224;6.924;2022-08-01T01:13:57;18.80;99.90
43087;DHT22;28708;52.224;6.924;2022-08-01T01:16:26;18.80;99.90
43087;DHT22;28708;52.224;6.924;2022-08-01T01:18:59;18.80;99.90
43087;DHT22;28708;52.224;6.924;2022-08-01T01:21:46;18.80;99.90
43087;DHT22;28708;52.224;6.924;2022-08-01T01:29:51;18.60;99.90
43087;DHT22;28708;52.224;6.924;2022-08-01T01:32:33;18.70;99.90
43087;DHT22;28708;52.224;6.924;2022-08-01T01:35:05;18.70;99.90
43087;DHT22;28708;52.224;6.924;2022-08-01T01:37:33;18.70;99.90
43087;DHT22;28708;52.224;6.924;2022-08-01T01:40:00;18.80;99.90
43087;DHT22;28708;52.224;6.924;2022-08-01T01:42:28;18.80;99.90
43087;DHT22;28708;52.224;6.924;2022-08-01T01:44:57;18.80;99.90
43087;DHT22;28708;52.224;6.924;2022-08-01T01:47:23;18.80;99.90
43087;DHT22;28708;52.224;6.924;2022-08-01T01:49:51;18.70;99.90
43087;DHT22;28708;52.224;6.924;2022-08-01T01:52:18;18.70;99.90
43087;DHT22;28708;52.224;6.924;2022-08-01T01:54:48;18.70;99.90
43087;DHT22;28708;52.224;6.924;2022-08-01T01:57:15;18.60;99.90
43087;DHT22;28708;52.224;6.924;2022-08-01T01:59:42;18.70;99.90
43087;DHT22;28708;52.224;6.924;2022-08-01T02:02:10;18.60;99.90
43087;DHT22;28708;52.224;6.924;2022-08-01T02:04:40;18.70;99.90
43087;DHT22;28708;52.224;6.924;2022-08-01T02:07:09;18.70;99.90
43087;DHT22;28708;52.224;6.924;2022-08-01T02:09:37;18.60;99.90
43087;DHT22;28708;52.224;6.924;2022-08-01T02:12:04;18.50;99.90
43087;DHT22;28708;52.224;6.924;2022-08-01T02:14:33;18.50;99.90
43087;DHT22;28708;52.224;6.924;2022-08-01T02:17:00;18.50;99.90
43087;DHT22;28708;52.224;6.924;2022-08-01T02:19:29;18.50;99.90
43087;DHT22;28708;52.224;6.924;2022-08-01T02:22:04;18.40;99.90
43087;DHT22;28708;52.224;6.924;2022-08-01T02:27:24;18.50;99.90
43087;DHT22;28708;52.224;6.924;2022-08-01T02:29:54;18.50;99.90
43087;DHT22;28708;52.224;6.924;2022-08-01T02:32:27;18.40;99.90
43087;DHT22;28708;52.224;6.924;2022-08-01T02:34:57;18.40;99.90
43087;DHT22;28708;52.224;6.924;2022-08-01T02:37:26;18.40;99.90
43087;DHT22;28708;52.224;6.924;2022-08-01T02:39:55;18.40;99.90
43087;DHT22;28708;52.224;6.924;2022-08-01T02:42:23;18.40;99.90
43087;DHT22;28708;52.224;6.924;2022-08-01T02:44:50;18.50;99.90
43087;DHT22;28708;52.224;6.924;2022-08-01T02:47:19;18.50;99.90
43087;DHT22;28708;52.224;6.924;2022-08-01T02:49:48;18.50;99.90
43087;DHT22;28708;52.224;6.924;2022-08-01T02:52:16;18.50;99.90
43087;DHT22;28708;52.224;6.924;2022-08-01T02:54:48;18.50;99.90
43087;DHT22;28708;52.224;6.924;2022-08-01T02:57:16;18.50;99.90
43087;DHT22;28708;52.224;6.924;2022-08-01T02:59:44;18.50;99.90
43087;DHT22;28708;52.224;6.924;2022-08-01T03:02:13;18.50;99.90
43087;DHT22;28708;52.224;6.924;2022-08-01T03:04:40;18.40;99.90
43087;DHT22;28708;52.224;6.924;2022-08-01T03:07:09;18.50;99.90
43087;DHT22;28708;52.224;6.924;2022-08-01T03:09:40;18.50;99.90
43087;DHT22;28708;52.224;6.924;2022-08-01T03:12:11;18.50;99.90
43087;DHT22;28708;52.224;6.924;2022-08-01T03:14:40;18.40;99.90
43087;DHT22;28708;52.224;6.924;2022-08-01T03:17:08;18.40;99.90
43087;DHT22;28708;52.224;6.924;2022-08-01T03:19:35;18.40;99.90
43087;DHT22;28708;52.224;6.924;2022-08-01T03:22:06;18.40;99.90
43087;DHT22;28708;52.224;6.924;2022-08-01T03:24:33;18.40;99.90
43087;DHT22;28708;52.224;6.924;2022-08-01T03:27:00;18.40;99.90
43087;DHT22;28708;52.224;6.924;2022-08-01T03:29:28;18.30;99.90
43087;DHT22;28708;52.224;6.924;2022-08-01T03:31:56;18.30;99.90
43087;DHT22;28708;52.224;6.924;2022-08-01T03:34:23;18.40;99.90
43087;DHT22;28708;52.224;6.924;2022-08-01T03:40:04;18.30;99.90
43087;DHT22;28708;52.224;6.924;2022-08-01T03:42:34;18.30;99.90
43087;DHT22;28708;52.224;6.924;2022-08-01T03:45:07;18.30;99.90
43087;DHT22;28708;52.224;6.924;2022-08-01T03:47:42;18.30;99.90
43087;DHT22;28708;52.224;6.924;2022-08-01T03:50:10;18.40;99.90
43087;DHT22;28708;52.224;6.924;2022-08-01T03:52:39;18.40;99.90
43087;DHT22;28708;52.224;6.924;2022-08-01T03:55:07;18.40;99.90
43087;DHT22;28708;52.224;6.924;2022-08-01T03:57:34;18.40;99.90
43087;DHT22;28708;52.224;6.924;2022-08-01T04:00:01;18.40;99.90
43087;DHT22;28708;52.224;6.924;2022-08-01T04:02:27;18.40;99.90
43087;DHT22;28708;52.224;6.924;2022-08-01T04:04:54;18.40;99.90
43087;DHT22;28708;52.224;6.924;2022-08-01T04:07:28;18.40;99.90
43087;DHT22;28708;52.224;6.924;2022-08-01T04:09:54;18.40;99.90
43087;DHT22;28708;52.224;6.924;2022-08-01T04:12:21;18.40;99.90
43087;DHT22;28708;52.224;6.924;2022-08-01T04:14:47;18.40;99.90
43087;DHT22;28708;52.224;6.924;2022-08-01T04:17:13;18.50;99.90
43087;DHT22;28708;52.224;6.924;2022-08-01T04:19:39;18.40;99.90
43087;DHT22;28708;52.224;6.924;2022-08-01T04:22:05;18.40;99.90
43087;DHT22;28708;52.224;6.924;2022-08-01T04:24:33;18.40;99.90
43087;DHT22;28708;52.224;6.924;2022-08-01T04:27:01;18.30;99.90
43087;DHT22;28708;52.224;6.924;2022-08-01T04:29:31;18.30;99.90
43087;DHT22;28708;52.224;6.924;2022-08-01T04:31:58;18.40;99.90
43087;DHT22;28708;52.224;6.924;2022-08-01T04:34:28;18.40;99.90
43087;DHT22;28708;52.224;6.924;2022-08-01T04:36:57;18.50;99.90
43087;DHT22;28708;52.224;6.924;2022-08-01T04:39:28;18.50;99.90
43087;DHT22;28708;52.224;6.924;2022-08-01T04:42:00;18.50;99.90
43087;DHT22;28708;52.224;6.924;2022-08-01T04:44:31;18.50;99.90
43087;DHT22;28708;52.224;6.924;2022-08-01T04:46:59;18.60;99.90
43087;DHT22;28708;52.224;6.924;2022-08-01T04:49:26;18.60;99.90
43087;DHT22;28708;52.224;6.924;2022-08-01T04:51:54;18.60;99.90
43087;DHT22;28708;52.224;6.924;2022-08-01T04:54:26;18.60;99.90
43087;DHT22;28708;52.224;6.924;2022-08-01T04:56:54;18.60;99.90
43087;DHT22;28708;52.224;6.924;2022-08-01T04:59:26;18.60;99.90
43087;DHT22;28708;52.224;6.924;2022-08-01T05:02:23;18.70;99.90
43087;DHT22;28708;52.224;6.924;2022-08-01T05:04:49;18.70;99.90
43087;DHT22;28708;52.224;6.924;2022-08-01T05:07:15;18.70;99.90
43087;DHT22;28708;52.224;6.924;2022-08-01T05:09:42;18.70;99.90
43087;DHT22;28708;52.224;6.924;2022-08-01T05:12:08;18.70;99.90
43087;DHT22;28708;52.224;6.924;2022-08-01T05:14:35;18.80;99.90
43087;DHT22;28708;52.224;6.924;2022-08-01T05:17:03;18.70;99.90
43087;DHT22;28708;52.224;6.924;2022-08-01T05:19:32;18.70;99.90
43087;DHT22;28708;52.224;6.924;2022-08-01T05:21:59;18.60;99.90
43087;DHT22;28708;52.224;6.924;2022-08-01T05:24:28;18.60;99.90
43087;DHT22;28708;52.224;6.924;2022-08-01T05:26:55;18.60;99.90
43087;DHT22;28708;52.224;6.924;2022-08-01T05:29:21;18.60;99.90
43087;DHT22;28708;52.224;6.924;2022-08-01T05:31:47;18.60;99.90
43087;DHT22;28708;52.224;6.924;2022-08-01T05:34:13;18.70;99.90
43087;DHT22;28708;52.224;6.924;2022-08-01T05:36:38;18.60;99.90
43087;DHT22;28708;52.224;6.924;2022-08-01T05:39:04;18.60;99.90
43087;DHT22;28708;52.224;6.924;2022-08-01T05:41:30;18.60;99.90
43087;DHT22;28708;52.224;6.924;2022-08-01T05:43:56;18.50;99.90
43087;DHT22;28708;52.224;6.924;2022-08-01T05:46:22;18.30;99.90
43087;DHT22;28708;52.224;6.924;2022-08-01T05:48:48;18.20;99.90
43087;DHT22;28708;52.224;6.924;2022-08-01T05:51:14;18.20;99.90
43087;DHT22;28708;52.224;6.924;2022-08-01T05:53:40;18.20;99.90
43087;DHT22;28708;52.224;6.924;2022-08-01T05:56:05;18.30;99.90
43087;DHT22;28708;52.224;6.924;2022-08-01T05:58:31;18.40;99.90
43087;DHT22;28708;52.224;6.924;2022-08-01T06:00:58;18.60;99.90
43087;DHT22;28708;52.224;6.924;2022-08-01T06:03:24;18.60;99.90
43087;DHT22;28708;52.224;6.924;2022-08-01T06:05:51;18.70;99.90
43087;DHT22;28708;52.224;6.924;2022-08-01T06:08:18;18.80;99.90
43087;DHT22;28708;52.224;6.924;2022-08-01T06:10:43;18.80;99.90
43087;DHT22;28708;52.224;6.924;2022-08-01T06:13:09;18.70;99.90
43087;DHT22;28708;52.224;6.924;2022-08-01T06:15:35;18.60;99.90
43087;DHT22;28708;52.224;6.924;2022-08-01T06:18:01;18.60;99.90
43087;DHT22;28708;52.224;6.924;2022-08-01T06:20:27;18.50;99.90
43087;DHT22;28708;52.224;6.924;2022-08-01T06:22:52;18.50;99.90
43087;DHT22;28708;52.224;6.924;2022-08-01T06:25:19;18.40;99.90
43087;DHT22;28708;52.224;6.924;2022-08-01T06:27:44;18.50;99.90
43087;DHT22;28708;52.224;6.924;2022-08-01T06:30:11;18.50;99.90
43087;DHT22;28708;52.224;6.924;2022-08-01T06:32:37;18.50;99.90
43087;DHT22;28708;52.224;6.924;2022-08-01T06:35:03;18.50;99.90
43087;DHT22;28708;52.224;6.924;2022-08-01T06:37:30;18.50;99.90
43087;DHT22;28708;52.224;6.924;2022-08-01T06:40:03;18.50;99.90
43087;DHT22;28708;52.224;6.924;2022-08-01T06:42:29;18.50;99.90
43087;DHT22;28708;52.224;6.924;2022-08-01T06:45:04;18.50;99.90
43087;DHT22;28708;52.224;6.924;2022-08-01T06:47:30;18.60;99.90
43087;DHT22;28708;52.224;6.924;2022-08-01T06:49:56;18.50;99.90
43087;DHT22;28708;52.224;6.924;2022-08-01T06:52:22;18.50;99.90
43087;DHT22;28708;52.224;6.924;2022-08-01T06:54:48;18.50;99.90
43087;DHT22;28708;52.224;6.924;2022-08-01T06:57:14;18.60;99.90
43087;DHT22;28708;52.224;6.924;2022-08-01T06:59:39;18.60;99.90
43087;DHT22;28708;52.224;6.924;2022-08-01T07:02:06;18.70;99.90
43087;DHT22;28708;52.224;6.924;2022-08-01T07:04:33;18.70;99.90
43087;DHT22;28708;52.224;6.924;2022-08-01T07:06:59;18.70;99.90
43087;DHT22;28708;52.224;6.924;2022-08-01T07:09:26;18.70;99.90
43087;DHT22;28708;52.224;6.924;2022-08-01T07:11:52;18.80;99.90
43087;DHT22;28708;52.224;6.924;2022-08-01T07:14:20;18.80;99.90
43087;DHT22;28708;52.224;6.924;2022-08-01T07:16:47;18.80;99.90
43087;DHT22;28708;52.224;6.924;2022-08-01T07:19:13;18.80;99.90
43087;DHT22;28708;52.224;6.924;2022-08-01T07:21:39;18.80;99.90
43087;DHT22;28708;52.224;6.924;2022-08-01T07:24:06;18.90;99.90
43087;DHT22;28708;52.224;6.924;2022-08-01T07:26:32;18.90;99.90
43087;DHT22;28708;52.224;6.924;2022-08-01T07:28:58;18.80;99.90
43087;DHT22;28708;52.224;6.924;2022-08-01T07:31:24;18.80;99.90
43087;DHT22;28708;52.224;6.924;2022-08-01T07:33:50;18.80;99.90
43087;DHT22;28708;52.224;6.924;2022-08-01T07:36:17;18.80;99.90
43087;DHT22;28708;52.224;6.924;2022-08-01T07:38:43;18.70;99.90
43087;DHT22;28708;52.224;6.924;2022-08-01T07:41:09;18.60;99.90
43087;DHT22;28708;52.224;6.924;2022-08-01T07:43:35;18.70;99.90
43087;DHT22;28708;52.224;6.924;2022-08-01T07:46:04;18.80;99.90
43087;DHT22;28708;52.224;6.924;2022-08-01T07:48:31;18.90;99.90
43087;DHT22;28708;52.224;6.924;2022-08-01T07:50:56;19.00;99.90
43087;DHT22;28708;52.224;6.924;2022-08-01T07:53:22;19.10;99.90
43087;DHT22;28708;52.224;6.924;2022-08-01T07:55:49;19.30;99.90
43087;DHT22;28708;52.224;6.924;2022-08-01T07:58:15;19.30;99.90
43087;DHT22;28708;52.224;6.924;2022-08-01T08:00:42;19.40;99.90
43087;DHT22;28708;52.224;6.924;2022-08-01T08:03:08;19.50;99.90
43087;DHT22;28708;52.224;6.924;2022-08-01T08:05:35;19.50;99.90
43087;DHT22;28708;52.224;6.924;2022-08-01T08:08:05;19.40;99.90
43087;DHT22;28708;52.224;6.924;2022-08-01T08:10:32;19.40;99.90
43087;DHT22;28708;52.224;6.924;2022-08-01T08:12:58;19.20;99.90
43087;DHT22;28708;52.224;6.924;2022-08-01T08:15:23;19.10;99.90
43087;DHT22;28708;52.224;6.924;2022-08-01T08:17:49;19.00;99.90
43087;DHT22;28708;52.224;6.924;2022-08-01T08:20:15;19.00;99.90
43087;DHT22;28708;52.224;6.924;2022-08-01T08:22:41;18.90;99.90
43087;DHT22;28708;52.224;6.924;2022-08-01T08:25:08;19.00;99.90
43087;DHT22;28708;52.224;6.924;2022-08-01T08:27:35;19.20;99.90
43087;DHT22;28708;52.224;6.924;2022-08-01T08:30:01;19.40;99.90
43087;DHT22;28708;52.224;6.924;2022-08-01T08:32:27;19.40;99.90
43087;DHT22;28708;52.224;6.924;2022-08-01T08:34:53;19.50;99.90
43087;DHT22;28708;52.224;6.924;2022-08-01T08:37:19;19.50;99.90
43087;DHT22;28708;52.224;6.924;2022-08-01T08:39:45;19.50;99.90
43087;DHT22;28708;52.224;6.924;2022-08-01T08:42:11;19.30;99.90
43087;DHT22;28708;52.224;6.924;2022-08-01T08:44:38;19.30;99.90
43087;DHT22;28708;52.224;6.924;2022-08-01T08:47:05;19.20;99.90
43087;DHT22;28708;52.224;6.924;2022-08-01T08:49:33;19.20;99.90
43087;DHT22;28708;52.224;6.924;2022-08-01T08:52:00;19.20;99.90
43087;DHT22;28708;52.224;6.924;2022-08-01T08:54:27;19.30;99.90
43087;DHT22;28708;52.224;6.924;2022-08-01T08:56:55;19.30;99.90
43087;DHT22;28708;52.224;6.924;2022-08-01T08:59:21;19.40;99.90
43087;DHT22;28708;52.224;6.924;2022-08-01T09:01:50;19.50;99.90
43087;DHT22;28708;52.224;6.924;2022-08-01T09:04:16;19.60;99.90
43087;DHT22;28708;52.224;6.924;2022-08-01T09:06:42;19.80;99.90
43087;DHT22;28708;52.224;6.924;2022-08-01T09:09:09;19.80;99.90
43087;DHT22;28708;52.224;6.924;2022-08-01T09:11:37;19.90;99.90
43087;DHT22;28708;52.224;6.924;2022-08-01T09:14:12;20.00;99.90
43087;DHT22;28708;52.224;6.924;2022-08-01T09:16:43;19.90;99.90
43087;DHT22;28708;52.224;6.924;2022-08-01T09:19:19;19.90;99.90
43087;DHT22;28708;52.224;6.924;2022-08-01T09:21:59;19.70;99.90
43087;DHT22;28708;52.224;6.924;2022-08-01T09:24:27;19.50;99.90
43087;DHT22;28708;52.224;6.924;2022-08-01T09:26:53;19.40;99.90
43087;DHT22;28708;52.224;6.924;2022-08-01T09:29:22;19.30;99.90
43087;DHT22;28708;52.224;6.924;2022-08-01T09:31:48;19.30;99.90
43087;DHT22;28708;52.224;6.924;2022-08-01T09:34:27;19.30;99.90
43087;DHT22;28708;52.224;6.924;2022-08-01T09:36:59;19.50;99.90
43087;DHT22;28708;52.224;6.924;2022-08-01T09:39:30;19.80;99.90
43087;DHT22;28708;52.224;6.924;2022-08-01T09:41:57;20.00;99.90
43087;DHT22;28708;52.224;6.924;2022-08-01T09:44:40;20.20;99.90
43087;DHT22;28708;52.224;6.924;2022-08-01T09:47:07;20.40;99.90
43087;DHT22;28708;52.224;6.924;2022-08-01T09:49:35;20.70;99.90
43087;DHT22;28708;52.224;6.924;2022-08-01T09:52:17;21.10;99.90
43087;DHT22;28708;52.224;6.924;2022-08-01T09:54:51;21.10;99.90
43087;DHT22;28708;52.224;6.924;2022-08-01T09:57:19;21.30;99.90
43087;DHT22;28708;52.224;6.924;2022-08-01T09:59:47;21.50;99.90
43087;DHT22;28708;52.224;6.924;2022-08-01T10:02:30;21.60;99.90
43087;DHT22;28708;52.224;6.924;2022-08-01T10:04:56;21.70;99.90
43087;DHT22;28708;52.224;6.924;2022-08-01T10:07:22;21.70;99.90
43087;DHT22;28708;52.224;6.924;2022-08-01T10:09:48;22.00;99.90
43087;DHT22;28708;52.224;6.924;2022-08-01T10:12:17;22.60;99.90
43087;DHT22;28708;52.224;6.924;2022-08-01T10:14:46;22.80;99.90
43087;DHT22;28708;52.224;6.924;2022-08-01T10:17:15;22.40;99.90
43087;DHT22;28708;52.224;6.924;2022-08-01T10:19:42;22.20;99.90
43087;DHT22;28708;52.224;6.924;2022-08-01T10:22:11;22.60;99.90
43087;DHT22;28708;52.224;6.924;2022-08-01T10:24:39;22.90;99.90
43087;DHT22;28708;52.224;6.924;2022-08-01T10:27:10;22.80;99.90
43087;DHT22;28708;52.224;6.924;2022-08-01T10:29:42;23.30;99.90
43087;DHT22;28708;52.224;6.924;2022-08-01T10:32:09;23.40;99.90
43087;DHT22;28708;52.224;6.924;2022-08-01T10:34:36;23.70;99.90
43087;DHT22;28708;52.224;6.924;2022-08-01T10:37:04;24.10;99.90
43087;DHT22;28708;52.224;6.924;2022-08-01T10:39:31;23.90;99.90
43087;DHT22;28708;52.224;6.924;2022-08-01T10:41:57;22.80;99.90
43087;DHT22;28708;52.224;6.924;2022-08-01T10:44:26;22.10;99.90
43087;DHT22;28708;52.224;6.924;2022-08-01T10:47:13;21.80;99.90
43087;DHT22;28708;52.224;6.924;2022-08-01T10:49:48;21.60;99.90
43087;DHT22;28708;52.224;6.924;2022-08-01T10:52:18;21.80;99.90
43087;DHT22;28708;52.224;6.924;2022-08-01T10:54:44;22.90;99.90
43087;DHT22;28708;52.224;6.924;2022-08-01T10:57:10;24.20;99.90
43087;DHT22;28708;52.224;6.924;2022-08-01T10:59:51;24.10;99.90
43087;DHT22;28708;52.224;6.924;2022-08-01T11:02:29;24.00;99.90
43087;DHT22;28708;52.224;6.924;2022-08-01T11:04:58;23.90;99.90
43087;DHT22;28708;52.224;6.924;2022-08-01T11:10:24;24.70;99.90
43087;DHT22;28708;52.224;6.924;2022-08-01T11:12:51;24.80;99.90
43087;DHT22;28708;52.224;6.924;2022-08-01T11:15:18;24.50;99.90
43087;DHT22;28708;52.224;6.924;2022-08-01T11:17:51;24.40;99.90
43087;DHT22;28708;52.224;6.924;2022-08-01T11:20:25;24.20;99.90
43087;DHT22;28708;52.224;6.924;2022-08-01T11:30:40;24.10;99.90
43087;DHT22;28708;52.224;6.924;2022-08-01T11:33:06;23.70;99.90
43087;DHT22;28708;52.224;6.924;2022-08-01T11:35:33;23.40;99.90
43087;DHT22;28708;52.224;6.924;2022-08-01T11:38:22;23.30;99.90
43087;DHT22;28708;52.224;6.924;2022-08-01T11:44:01;22.60;99.90
43087;DHT22;28708;52.224;6.924;2022-08-01T11:54:50;23.70;99.90
43087;DHT22;28708;52.224;6.924;2022-08-01T11:57:24;23.80;99.90
43087;DHT22;28708;52.224;6.924;2022-08-01T11:59:54;23.80;99.90
43087;DHT22;28708;52.224;6.924;2022-08-01T12:02:33;23.80;99.90
43087;DHT22;28708;52.224;6.924;2022-08-01T12:07:29;23.90;99.90
43087;DHT22;28708;52.224;6.924;2022-08-01T12:10:04;23.90;99.90
43087;DHT22;28708;52.224;6.924;2022-08-01T12:12:34;23.90;99.90
43087;DHT22;28708;52.224;6.924;2022-08-01T12:15:05;23.70;99.90
43087;DHT22;28708;52.224;6.924;2022-08-01T12:17:42;24.10;99.90
43087;DHT22;28708;52.224;6.924;2022-08-01T12:20:11;24.00;99.90
43087;DHT22;28708;52.224;6.924;2022-08-01T12:22:37;23.90;99.90
43087;DHT22;28708;52.224;6.924;2022-08-01T12:25:16;24.10;99.90
43087;DHT22;28708;52.224;6.924;2022-08-01T12:27:45;24.00;99.90
43087;DHT22;28708;52.224;6.924;2022-08-01T12:30:13;23.70;99.90
43087;DHT22;28708;52.224;6.924;2022-08-01T12:32:42;23.70;99.90
43087;DHT22;28708;52.224;6.924;2022-08-01T12:35:10;23.60;99.90
43087;DHT22;28708;52.224;6.924;2022-08-01T12:37:44;23.40;99.90
43087;DHT22;28708;52.224;6.924;2022-08-01T12:40:11;23.30;99.90
43087;DHT22;28708;52.224;6.924;2022-08-01T12:42:39;23.30;99.90
43087;DHT22;28708;52.224;6.924;2022-08-01T12:45:07;23.50;99.90
43087;DHT22;28708;52.224;6.924;2022-08-01T12:47:38;23.70;99.90
43087;DHT22;28708;52.224;6.924;2022-08-01T12:50:14;23.60;99.90
43087;DHT22;28708;52.224;6.924;2022-08-01T12:52:41;23.70;99.90
43087;DHT22;28708;52.224;6.924;2022-08-01T12:55:12;23.90;99.90
43087;DHT22;28708;52.224;6.924;2022-08-01T12:57:41;24.00;99.90
43087;DHT22;28708;52.224;6.924;2022-08-01T13:00:12;24.30;99.90
43087;DHT22;28708;52.224;6.924;2022-08-01T13:02:39;24.60;99.90
43087;DHT22;28708;52.224;6.924;2022-08-01T13:05:06;24.20;99.90
43087;DHT22;28708;52.224;6.924;2022-08-01T13:10:08;23.80;99.90
43087;DHT22;28708;52.224;6.924;2022-08-01T13:12:35;24.00;99.90
43087;DHT22;28708;52.224;6.924;2022-08-01T13:15:17;24.00;99.90
43087;DHT22;28708;52.224;6.924;2022-08-01T13:17:44;23.70;99.90
43087;DHT22;28708;52.224;6.924;2022-08-01T13:20:21;23.70;99.90
43087;DHT22;28708;52.224;6.924;2022-08-01T13:22:47;23.70;99.90
43087;DHT22;28708;52.224;6.924;2022-08-01T13:25:14;23.80;99.90
43087;DHT22;28708;52.224;6.924;2022-08-01T13:27:40;24.00;99.90
43087;DHT22;28708;52.224;6.924;2022-08-01T13:30:18;24.20;99.90
43087;DHT22;28708;52.224;6.924;2022-08-01T13:32:59;24.10;99.90
43087;DHT22;28708;52.224;6.924;2022-08-01T13:35:26;23.90;99.90
43087;DHT22;28708;52.224;6.924;2022-08-01T13:37:52;23.80;99.90
43087;DHT22;28708;52.224;6.924;2022-08-01T13:40:28;24.00;99.90
43087;DHT22;28708;52.224;6.924;2022-08-01T13:42:54;24.00;99.90
43087;DHT22;28708;52.224;6.924;2022-08-01T13:45:22;23.80;99.90
43087;DHT22;28708;52.224;6.924;2022-08-01T13:47:49;23.70;99.90
43087;DHT22;28708;52.224;6.924;2022-08-01T13:50:15;23.50;99.90
43087;DHT22;28708;52.224;6.924;2022-08-01T13:52:42;23.50;99.90
43087;DHT22;28708;52.224;6.924;2022-08-01T13:55:08;23.60;99.90
43087;DHT22;28708;52.224;6.924;2022-08-01T13:57:33;23.70;99.90
43087;DHT22;28708;52.224;6.924;2022-08-01T13:59:59;23.50;99.90
43087;DHT22;28708;52.224;6.924;2022-08-01T14:02:27;23.60;99.90
43087;DHT22;28708;52.224;6.924;2022-08-01T14:04:56;23.50;99.90
43087;DHT22;28708;52.224;6.924;2022-08-01T14:07:24;23.50;99.90
43087;DHT22;28708;52.224;6.924;2022-08-01T14:09:52;23.40;99.90
43087;DHT22;28708;52.224;6.924;2022-08-01T14:12:18;23.40;99.90
43087;DHT22;28708;52.224;6.924;2022-08-01T14:14:44;23.60;99.90
43087;DHT22;28708;52.224;6.924;2022-08-01T14:17:10;23.70;99.90
43087;DHT22;28708;52.224;6.924;2022-08-01T14:19:36;24.10;99.90
43087;DHT22;28708;52.224;6.924;2022-08-01T14:22:02;23.90;99.90
43087;DHT22;28708;52.224;6.924;2022-08-01T14:24:28;23.70;99.90
43087;DHT22;28708;52.224;6.924;2022-08-01T14:26:54;23.60;99.90
43087;DHT22;28708;52.224;6.924;2022-08-01T14:29:20;23.70;99.90
43087;DHT22;28708;52.224;6.924;2022-08-01T14:31:45;23.90;99.90
43087;DHT22;28708;52.224;6.924;2022-08-01T14:34:11;23.80;99.90
43087;DHT22;28708;52.224;6.924;2022-08-01T14:36:41;23.60;99.90
43087;DHT22;28708;52.224;6.924;2022-08-01T14:39:07;23.40;99.90
43087;DHT22;28708;52.224;6.924;2022-08-01T14:41:32;23.40;99.90
43087;DHT22;28708;52.224;6.924;2022-08-01T14:43:58;23.70;99.90
43087;DHT22;28708;52.224;6.924;2022-08-01T14:46:25;24.10;99.90
43087;DHT22;28708;52.224;6.924;2022-08-01T14:48:51;23.60;99.90
43087;DHT22;28708;52.224;6.924;2022-08-01T14:51:16;23.60;99.90
43087;DHT22;28708;52.224;6.924;2022-08-01T14:53:42;23.40;99.90
43087;DHT22;28708;52.224;6.924;2022-08-01T14:56:08;23.20;99.90
43087;DHT22;28708;52.224;6.924;2022-08-01T14:58:34;22.90;99.90
43087;DHT22;28708;52.224;6.924;2022-08-01T15:01:00;22.90;99.90
43087;DHT22;28708;52.224;6.924;2022-08-01T15:03:26;22.90;99.90
43087;DHT22;28708;52.224;6.924;2022-08-01T15:05:52;23.00;99.90
43087;DHT22;28708;52.224;6.924;2022-08-01T15:08:18;23.10;99.90
43087;DHT22;28708;52.224;6.924;2022-08-01T15:10:44;23.00;99.90
43087;DHT22;28708;52.224;6.924;2022-08-01T15:13:09;22.80;99.90
43087;DHT22;28708;52.224;6.924;2022-08-01T15:15:35;22.70;99.90
43087;DHT22;28708;52.224;6.924;2022-08-01T15:18:01;22.70;99.90
43087;DHT22;28708;52.224;6.924;2022-08-01T15:20:27;22.90;99.90
43087;DHT22;28708;52.224;6.924;2022-08-01T15:22:53;23.60;99.90
43087;DHT22;28708;52.224;6.924;2022-08-01T15:25:20;23.90;99.90
43087;DHT22;28708;52.224;6.924;2022-08-01T15:27:48;24.00;99.90
43087;DHT22;28708;52.224;6.924;2022-08-01T15:30:14;24.10;99.90
43087;DHT22;28708;52.224;6.924;2022-08-01T15:32:40;24.20;99.90
43087;DHT22;28708;52.224;6.924;2022-08-01T15:35:07;24.20;99.90
43087;DHT22;28708;52.224;6.924;2022-08-01T15:37:35;24.30;99.90
43087;DHT22;28708;52.224;6.924;2022-08-01T15:40:01;23.70;99.90
43087;DHT22;28708;52.224;6.924;2022-08-01T15:42:27;23.70;99.90
43087;DHT22;28708;52.224;6.924;2022-08-01T15:44:53;23.50;99.90
43087;DHT22;28708;52.224;6.924;2022-08-01T15:47:19;23.40;99.90
43087;DHT22;28708;52.224;6.924;2022-08-01T15:49:45;23.10;99.90
43087;DHT22;28708;52.224;6.924;2022-08-01T15:52:11;23.10;99.90
43087;DHT22;28708;52.224;6.924;2022-08-01T15:54:37;23.60;99.90
43087;DHT22;28708;52.224;6.924;2022-08-01T15:57:06;23.80;99.90
43087;DHT22;28708;52.224;6.924;2022-08-01T15:59:32;24.10;99.90
43087;DHT22;28708;52.224;6.924;2022-08-01T16:01:58;24.00;99.90
43087;DHT22;28708;52.224;6.924;2022-08-01T16:04:24;23.80;99.90
43087;DHT22;28708;52.224;6.924;2022-08-01T16:06:50;23.50;99.90
43087;DHT22;28708;52.224;6.924;2022-08-01T16:09:15;23.30;99.90
43087;DHT22;28708;52.224;6.924;2022-08-01T16:11:41;23.60;99.90
43087;DHT22;28708;52.224;6.924;2022-08-01T16:14:07;23.80;99.90
43087;DHT22;28708;52.224;6.924;2022-08-01T16:16:33;23.80;99.90